Time;durP1;ratioP1;P1;durP2;ratioP2;P2;SDS_P1;SDS_P2;PMS_P1;PMS_P2;Temp;Humidity;BMP_temperature;BMP_pressure;BME280_temperature;BME280_humidity;BME280_pressure;Samples;Min_cycle;Max_cycle;Signal;HPM_P1;HPM_P2
2023/10/30 00:00:35;;;;;;;471.80;196.17;;;;;;;;;;5011655;28;20713;-69
2023/10/30 00:03:01;;;;;;;451.80;184.93;;;;;;;;;;5019959;28;20188;-66
2023/10/30 00:05:27;;;;;;;471.90;195.83;;;;;;;;;;5015882;28;20226;-67
2023/10/30 00:07:53;;;;;;;454.10;184.07;;;;;;;;;;5011180;28;20220;-66
2023/10/30 00:10:19;;;;;;;446.53;176.20;;;;;;;;;;5013446;28;20212;-66
2023/10/30 00:12:45;;;;;;;435.50;172.53;;;;;;;;;;5014357;28;20232;-66
2023/10/30 00:15:11;;;;;;;465.07;187.77;;;;;;;;;;5013086;28;20204;-66
2023/10/30 00:17:37;;;;;;;467.50;192.17;;;;;;;;;;5013072;28;20973;-67
2023/10/30 00:20:03;;;;;;;485.67;198.23;;;;;;;;;;5010977;28;20208;-67
2023/10/30 00:22:29;;;;;;;449.07;178.33;;;;;;;;;;5011587;28;20212;-65
2023/10/30 00:24:55;;;;;;;472.63;188.47;;;;;;;;;;5005862;28;20649;-66
2023/10/30 00:27:21;;;;;;;461.53;184.10;;;;;;;;;;5016543;28;20803;-66
2023/10/30 00:29:47;;;;;;;455.77;187.20;;;;;;;;;;5009119;28;20204;-67
2023/10/30 00:32:13;;;;;;;460.67;186.87;;;;;;;;;;5008480;28;20235;-67
2023/10/30 00:34:39;;;;;;;448.63;182.40;;;;;;;;;;5008395;28;20254;-66
2023/10/30 00:37:05;;;;;;;457.00;182.30;;;;;;;;;;5020040;28;20211;-65
2023/10/30 00:39:32;;;;;;;461.80;186.17;;;;;;;;;;5018761;28;20686;-66
2023/10/30 00:42:01;;;;;;;454.07;181.13;;;;;;;;;;5017755;28;20695;-67
2023/10/30 00:44:27;;;;;;;480.90;195.93;;;;;;;;;;5013617;28;20216;-66
2023/10/30 00:46:53;;;;;;;467.37;188.37;;;;;;;;;;5012828;28;20224;-67
2023/10/30 00:49:19;;;;;;;478.23;189.63;;;;;;;;;;5019546;28;20311;-66
2023/10/30 00:51:46;;;;;;;434.67;172.23;;;;;;;;;;5009771;28;20900;-66
2023/10/30 00:54:11;;;;;;;445.00;174.90;;;;;;;;;;5017860;28;20215;-66
2023/10/30 00:56:37;;;;;;;449.47;175.83;;;;;;;;;;5009176;28;20208;-66
2023/10/30 00:59:04;;;;;;;457.70;180.83;;;;;;;;;;5013561;28;20212;-66
2023/10/30 01:01:29;;;;;;;483.10;198.93;;;;;;;;;;5011689;28;20208;-66
2023/10/30 01:03:55;;;;;;;443.30;174.50;;;;;;;;;;5009576;28;20220;-67
2023/10/30 01:06:21;;;;;;;457.47;184.57;;;;;;;;;;5012720;28;20208;-66
2023/10/30 01:08:47;;;;;;;432.27;170.80;;;;;;;;;;5014253;28;20211;-66
2023/10/30 01:11:13;;;;;;;465.20;191.80;;;;;;;;;;5015077;28;20274;-66
2023/10/30 01:13:39;;;;;;;406.63;158.80;;;;;;;;;;5015525;28;20208;-66
2023/10/30 01:16:06;;;;;;;465.80;187.17;;;;;;;;;;5011931;28;20208;-66
2023/10/30 01:18:32;;;;;;;486.27;194.80;;;;;;;;;;5005352;28;20235;-67
2023/10/30 01:20:58;;;;;;;457.73;181.17;;;;;;;;;;5008431;28;20651;-67
2023/10/30 01:23:24;;;;;;;477.43;191.93;;;;;;;;;;5012845;28;20991;-66
2023/10/30 01:25:51;;;;;;;456.53;185.97;;;;;;;;;;5017339;28;20220;-67
2023/10/30 01:28:17;;;;;;;454.50;182.13;;;;;;;;;;5003151;28;20322;-66
2023/10/30 01:30:43;;;;;;;464.50;182.43;;;;;;;;;;5013151;28;20235;-66
2023/10/30 01:33:09;;;;;;;436.90;173.90;;;;;;;;;;5014480;28;20382;-66
2023/10/30 01:35:36;;;;;;;476.30;185.87;;;;;;;;;;5011939;28;20505;-66
2023/10/30 01:38:02;;;;;;;444.17;171.23;;;;;;;;;;5005296;28;20216;-65
2023/10/30 01:40:28;;;;;;;472.17;187.20;;;;;;;;;;5013540;28;20243;-66
2023/10/30 01:42:54;;;;;;;475.43;187.10;;;;;;;;;;5005483;28;20685;-66
2023/10/30 01:45:20;;;;;;;475.70;194.33;;;;;;;;;;5013597;28;20208;-66
2023/10/30 01:47:46;;;;;;;452.13;177.07;;;;;;;;;;5012861;28;20204;-66
2023/10/30 01:50:14;;;;;;;447.87;178.40;;;;;;;;;;5015738;28;20220;-66
2023/10/30 01:52:40;;;;;;;450.30;180.60;;;;;;;;;;5011304;28;20220;-67
2023/10/30 01:55:06;;;;;;;480.23;196.57;;;;;;;;;;5005737;28;20348;-66
2023/10/30 01:57:32;;;;;;;506.53;207.83;;;;;;;;;;5011654;28;20251;-67
2023/10/30 01:59:58;;;;;;;441.43;170.03;;;;;;;;;;5005850;28;20274;-66
2023/10/30 02:02:26;;;;;;;451.23;178.93;;;;;;;;;;5011048;28;20732;-66
2023/10/30 02:04:52;;;;;;;438.43;171.30;;;;;;;;;;5012785;28;20286;-66
2023/10/30 02:07:18;;;;;;;444.97;178.57;;;;;;;;;;5043509;28;20710;-65
2023/10/30 02:09:45;;;;;;;472.53;188.80;;;;;;;;;;5016040;28;20212;-66
2023/10/30 02:12:10;;;;;;;482.50;192.93;;;;;;;;;;5035205;28;20190;-66
2023/10/30 02:14:36;;;;;;;466.70;183.90;;;;;;;;;;5013465;28;20215;-66
2023/10/30 02:17:02;;;;;;;452.87;176.33;;;;;;;;;;5004851;28;20562;-66
2023/10/30 02:19:28;;;;;;;440.43;172.80;;;;;;;;;;5013276;28;20610;-67
2023/10/30 02:21:55;;;;;;;433.70;170.10;;;;;;;;;;5014834;28;20394;-66
2023/10/30 02:24:22;;;;;;;453.73;180.27;;;;;;;;;;5010965;28;20250;-66
2023/10/30 02:26:48;;;;;;;482.60;194.67;;;;;;;;;;5005518;28;20197;-66
2023/10/30 02:29:14;;;;;;;472.70;190.30;;;;;;;;;;5011953;28;20215;-66
2023/10/30 02:31:40;;;;;;;456.90;178.17;;;;;;;;;;5013883;28;20216;-66
2023/10/30 02:34:06;;;;;;;445.07;172.10;;;;;;;;;;5009003;28;20689;-66
2023/10/30 02:36:32;;;;;;;458.10;176.90;;;;;;;;;;5019075;28;20231;-66
2023/10/30 02:38:58;;;;;;;450.40;174.40;;;;;;;;;;5015014;28;20345;-66
2023/10/30 02:41:29;;;;;;;505.97;208.53;;;;;;;;;;5014801;28;20490;-66
2023/10/30 02:43:54;;;;;;;426.73;170.53;;;;;;;;;;5017086;28;20366;-66
2023/10/30 02:46:20;;;;;;;463.80;188.43;;;;;;;;;;5040833;28;20579;-67
2023/10/30 02:48:46;;;;;;;441.93;176.20;;;;;;;;;;5017705;28;20216;-67
2023/10/30 02:51:12;;;;;;;470.90;188.17;;;;;;;;;;5007300;28;20177;-66
2023/10/30 02:53:38;;;;;;;474.67;188.40;;;;;;;;;;5013459;28;20177;-66
2023/10/30 02:56:04;;;;;;;459.90;179.27;;;;;;;;;;5018379;28;20642;-67
2023/10/30 02:58:30;;;;;;;473.87;185.93;;;;;;;;;;5037530;28;20273;-66
2023/10/30 03:00:57;;;;;;;438.10;171.67;;;;;;;;;;5018422;28;20216;-66
2023/10/30 03:03:23;;;;;;;457.73;188.07;;;;;;;;;;5019587;28;20228;-66
2023/10/30 03:05:49;;;;;;;442.70;176.73;;;;;;;;;;5018798;28;20188;-66
2023/10/30 03:08:15;;;;;;;464.10;183.63;;;;;;;;;;5016362;28;20336;-67
2023/10/30 03:10:41;;;;;;;435.17;171.40;;;;;;;;;;5019867;28;20355;-66
2023/10/30 03:13:07;;;;;;;460.17;184.60;;;;;;;;;;5013194;28;20497;-66
2023/10/30 03:15:33;;;;;;;451.83;184.13;;;;;;;;;;5017381;28;20262;-66
2023/10/30 03:17:59;;;;;;;455.20;180.77;;;;;;;;;;5017719;28;20207;-66
2023/10/30 03:20:25;;;;;;;466.60;187.97;;;;;;;;;;5016871;28;20216;-67
2023/10/30 03:22:51;;;;;;;454.73;182.17;;;;;;;;;;5007499;28;20306;-66
2023/10/30 03:25:17;;;;;;;434.03;177.33;;;;;;;;;;5017699;28;20227;-66
2023/10/30 03:27:43;;;;;;;426.03;172.00;;;;;;;;;;5015146;28;20289;-66
2023/10/30 03:30:09;;;;;;;470.77;190.33;;;;;;;;;;5012499;28;20704;-66
2023/10/30 03:32:35;;;;;;;455.73;181.23;;;;;;;;;;5016653;28;20242;-66
2023/10/30 03:35:01;;;;;;;452.50;175.33;;;;;;;;;;5016080;28;20625;-67
2023/10/30 03:37:26;;;;;;;503.07;201.37;;;;;;;;;;5012968;28;20296;-67
2023/10/30 03:39:52;;;;;;;436.40;174.90;;;;;;;;;;5012506;28;20797;-66
2023/10/30 03:42:19;;;;;;;460.10;182.30;;;;;;;;;;5014336;28;20224;-65
2023/10/30 03:44:45;;;;;;;463.70;181.50;;;;;;;;;;5016901;28;20276;-67
2023/10/30 03:47:11;;;;;;;476.77;193.83;;;;;;;;;;5041118;28;20555;-67
2023/10/30 03:49:37;;;;;;;438.93;171.20;;;;;;;;;;5018159;28;20247;-67
2023/10/30 03:52:03;;;;;;;455.57;178.23;;;;;;;;;;5013378;28;20220;-67
2023/10/30 03:54:29;;;;;;;428.97;172.40;;;;;;;;;;5016316;28;20235;-66
2023/10/30 03:56:55;;;;;;;459.87;185.07;;;;;;;;;;5018951;28;20220;-66
2023/10/30 03:59:21;;;;;;;479.73;192.90;;;;;;;;;;5005280;28;20224;-66
2023/10/30 04:01:47;;;;;;;421.10;166.27;;;;;;;;;;5015042;28;20219;-67
2023/10/30 04:04:13;;;;;;;461.17;180.60;;;;;;;;;;5017045;28;20220;-66
2023/10/30 04:06:39;;;;;;;457.70;182.13;;;;;;;;;;5015627;28;20709;-67
2023/10/30 04:09:05;;;;;;;448.73;176.30;;;;;;;;;;5018257;28;20292;-66
2023/10/30 04:11:31;;;;;;;446.77;176.97;;;;;;;;;;5016330;28;20177;-66
2023/10/30 04:13:57;;;;;;;452.40;180.67;;;;;;;;;;5015894;28;20208;-65
2023/10/30 04:16:23;;;;;;;479.63;197.77;;;;;;;;;;5005960;28;20229;-65
2023/10/30 04:18:49;;;;;;;468.13;190.23;;;;;;;;;;5014585;28;20597;-66
2023/10/30 04:21:15;;;;;;;469.37;194.63;;;;;;;;;;5016228;28;20267;-65
2023/10/30 04:23:42;;;;;;;438.17;176.70;;;;;;;;;;5016604;28;20245;-67
2023/10/30 04:26:08;;;;;;;457.40;182.97;;;;;;;;;;5017747;28;20609;-65
2023/10/30 04:28:34;;;;;;;454.17;179.73;;;;;;;;;;5011870;28;20757;-66
2023/10/30 04:31:00;;;;;;;447.67;174.53;;;;;;;;;;5017188;28;20433;-67
2023/10/30 04:33:26;;;;;;;464.30;186.83;;;;;;;;;;5017054;28;20540;-66
2023/10/30 04:35:53;;;;;;;463.43;190.43;;;;;;;;;;5013937;28;20222;-67
2023/10/30 04:38:19;;;;;;;454.03;181.00;;;;;;;;;;5015955;28;20719;-66
2023/10/30 04:40:45;;;;;;;446.27;174.40;;;;;;;;;;5019610;28;20224;-67
2023/10/30 04:43:11;;;;;;;467.00;185.33;;;;;;;;;;5007349;28;20208;-65
2023/10/30 04:45:37;;;;;;;475.27;193.40;;;;;;;;;;5007158;28;20254;-67
2023/10/30 04:48:04;;;;;;;472.53;190.97;;;;;;;;;;5012862;28;20438;-67
2023/10/30 04:50:30;;;;;;;452.17;184.13;;;;;;;;;;5014937;28;20181;-66
2023/10/30 04:52:56;;;;;;;436.10;172.37;;;;;;;;;;5017636;28;20222;-67
2023/10/30 04:55:22;;;;;;;477.27;194.77;;;;;;;;;;5017115;28;20512;-68
2023/10/30 04:57:48;;;;;;;442.50;178.63;;;;;;;;;;5021059;28;20709;-66
2023/10/30 05:00:14;;;;;;;485.60;195.33;;;;;;;;;;5014049;28;20188;-66
2023/10/30 05:02:42;;;;;;;445.67;176.43;;;;;;;;;;5016530;28;20185;-67
2023/10/30 05:05:08;;;;;;;469.50;192.50;;;;;;;;;;5016250;28;20289;-66
2023/10/30 05:07:34;;;;;;;441.57;178.87;;;;;;;;;;5013406;28;20219;-66
2023/10/30 05:10:00;;;;;;;455.23;184.43;;;;;;;;;;5017230;28;20204;-67
2023/10/30 05:12:26;;;;;;;528.13;224.83;;;;;;;;;;5016411;28;20207;-66
2023/10/30 05:14:52;;;;;;;446.70;179.57;;;;;;;;;;5014772;28;20200;-66
2023/10/30 05:17:18;;;;;;;446.23;186.20;;;;;;;;;;5010414;28;20218;-65
2023/10/30 05:19:44;;;;;;;446.33;180.97;;;;;;;;;;5016714;28;20604;-66
2023/10/30 05:22:10;;;;;;;484.17;198.13;;;;;;;;;;5011979;28;20776;-67
2023/10/30 05:24:36;;;;;;;428.83;172.97;;;;;;;;;;5014797;28;20208;-66
2023/10/30 05:27:02;;;;;;;440.37;178.03;;;;;;;;;;5020106;28;20535;-67
2023/10/30 05:29:28;;;;;;;465.97;197.63;;;;;;;;;;5016512;28;20625;-66
2023/10/30 05:31:53;;;;;;;440.43;174.17;;;;;;;;;;5017527;28;20739;-67
2023/10/30 05:34:19;;;;;;;458.50;185.63;;;;;;;;;;5014994;28;20732;-66
2023/10/30 05:36:45;;;;;;;493.73;205.07;;;;;;;;;;5015288;28;20866;-66
2023/10/30 05:39:11;;;;;;;461.77;186.97;;;;;;;;;;5015102;28;20612;-67
2023/10/30 05:41:37;;;;;;;449.47;177.57;;;;;;;;;;5022464;28;20220;-67
2023/10/30 05:44:04;;;;;;;438.13;171.73;;;;;;;;;;5018159;28;20322;-65
2023/10/30 05:46:30;;;;;;;475.27;198.20;;;;;;;;;;5011571;28;20224;-66
2023/10/30 05:48:56;;;;;;;427.07;171.30;;;;;;;;;;5018120;28;20289;-66
2023/10/30 05:51:22;;;;;;;480.60;199.63;;;;;;;;;;5016866;28;20230;-66
2023/10/30 05:53:47;;;;;;;439.10;178.87;;;;;;;;;;5019552;28;20188;-66
2023/10/30 05:56:13;;;;;;;456.77;182.10;;;;;;;;;;5005455;28;20223;-67
2023/10/30 05:58:39;;;;;;;481.37;195.03;;;;;;;;;;5018777;28;20715;-66
2023/10/30 06:01:05;;;;;;;447.67;175.47;;;;;;;;;;5014278;28;20307;-66
2023/10/30 06:03:31;;;;;;;488.23;205.17;;;;;;;;;;5017423;28;21209;-66
2023/10/30 06:05:57;;;;;;;452.47;182.27;;;;;;;;;;5016824;28;20184;-67
2023/10/30 06:08:23;;;;;;;459.87;189.67;;;;;;;;;;5010074;28;20305;-67
2023/10/30 06:10:49;;;;;;;429.07;169.63;;;;;;;;;;5008320;28;20216;-67
2023/10/30 06:13:15;;;;;;;420.93;165.93;;;;;;;;;;5011048;28;20216;-68
2023/10/30 06:15:41;;;;;;;452.87;184.67;;;;;;;;;;5010280;28;20238;-69
2023/10/30 06:18:07;;;;;;;456.77;182.10;;;;;;;;;;5011210;28;20259;-68
2023/10/30 06:20:33;;;;;;;485.17;200.73;;;;;;;;;;5015529;28;20180;-67
2023/10/30 06:22:59;;;;;;;439.17;173.67;;;;;;;;;;5023834;28;20216;-67
2023/10/30 06:25:25;;;;;;;462.37;187.27;;;;;;;;;;5015799;28;20212;-66
2023/10/30 06:27:53;;;;;;;473.70;196.00;;;;;;;;;;4983500;28;20899;-66
2023/10/30 06:30:19;;;;;;;433.70;175.00;;;;;;;;;;5018060;28;20239;-67
2023/10/30 06:32:44;;;;;;;485.20;196.80;;;;;;;;;;5011351;28;20262;-68
2023/10/30 06:35:10;;;;;;;443.40;173.17;;;;;;;;;;5012751;28;20400;-81
2023/10/30 06:37:37;;;;;;;501.50;207.80;;;;;;;;;;5012375;28;20596;-76
2023/10/30 06:40:05;;;;;;;454.13;177.83;;;;;;;;;;5020791;28;20558;-80
2023/10/30 06:42:31;;;;;;;545.70;232.87;;;;;;;;;;5020873;28;20216;-81
2023/10/30 06:44:57;;;;;;;436.97;173.90;;;;;;;;;;5010172;28;20631;-77
2023/10/30 06:47:23;;;;;;;467.37;184.50;;;;;;;;;;5017521;28;20224;-76
2023/10/30 06:49:51;;;;;;;425.73;168.63;;;;;;;;;;5018263;28;20224;-76
2023/10/30 06:52:16;;;;;;;467.57;190.23;;;;;;;;;;5014497;28;20340;-78
2023/10/30 06:54:42;;;;;;;467.20;190.33;;;;;;;;;;5016658;28;20764;-76
2023/10/30 06:57:08;;;;;;;523.07;222.93;;;;;;;;;;5019072;28;20215;-77
2023/10/30 06:59:34;;;;;;;455.03;185.37;;;;;;;;;;5017226;28;20284;-78
2023/10/30 07:02:00;;;;;;;444.17;177.67;;;;;;;;;;5012918;28;20224;-75
2023/10/30 07:04:26;;;;;;;465.83;193.90;;;;;;;;;;5016521;28;20295;-80
2023/10/30 07:06:52;;;;;;;480.17;200.70;;;;;;;;;;5003614;28;20239;-80
2023/10/30 07:09:18;;;;;;;437.73;180.47;;;;;;;;;;5018734;28;20196;-81
2023/10/30 07:11:44;;;;;;;464.93;190.27;;;;;;;;;;5014728;28;20222;-73
2023/10/30 07:14:10;;;;;;;444.10;182.57;;;;;;;;;;5007477;28;20231;-72
2023/10/30 07:16:36;;;;;;;458.57;188.87;;;;;;;;;;5007450;28;20597;-72
2023/10/30 07:19:02;;;;;;;451.13;181.73;;;;;;;;;;5011126;28;20235;-72
2023/10/30 07:21:29;;;;;;;571.43;250.93;;;;;;;;;;5001150;28;20299;-72
2023/10/30 07:23:55;;;;;;;456.83;189.00;;;;;;;;;;5017788;28;20725;-82
2023/10/30 07:26:21;;;;;;;479.27;198.40;;;;;;;;;;5024137;28;20212;-80
2023/10/30 07:28:51;;;;;;;470.80;190.47;;;;;;;;;;5010383;28;20236;-81
2023/10/30 07:31:18;;;;;;;437.80;181.17;;;;;;;;;;5016408;28;20223;-82
2023/10/30 07:33:44;;;;;;;464.30;194.20;;;;;;;;;;5016416;28;20266;-82
2023/10/30 07:36:10;;;;;;;485.80;204.80;;;;;;;;;;5009362;28;20209;-83
2023/10/30 07:38:36;;;;;;;480.70;199.87;;;;;;;;;;5029505;28;20558;-79
2023/10/30 07:41:05;;;;;;;436.87;175.83;;;;;;;;;;5023875;28;20291;-85
2023/10/30 07:43:31;;;;;;;503.13;211.90;;;;;;;;;;5016319;28;20216;-87
2023/10/30 07:45:57;;;;;;;442.20;180.87;;;;;;;;;;5024356;28;20242;-83
2023/10/30 07:48:26;;;;;;;450.70;184.67;;;;;;;;;;5026561;28;20769;-81
2023/10/30 07:50:52;;;;;;;439.57;178.47;;;;;;;;;;5028133;28;20183;-81
2023/10/30 07:53:18;;;;;;;454.93;186.90;;;;;;;;;;5025465;28;20235;-79
2023/10/30 07:55:46;;;;;;;502.57;213.37;;;;;;;;;;5017463;28;20247;-77
2023/10/30 07:58:12;;;;;;;479.33;199.30;;;;;;;;;;5007057;28;20242;-76
2023/10/30 08:00:39;;;;;;;486.50;198.77;;;;;;;;;;5024602;28;20222;-76
2023/10/30 08:03:06;;;;;;;462.50;201.23;;;;;;;;;;5037185;28;20187;-78
2023/10/30 08:05:32;;;;;;;559.50;246.50;;;;;;;;;;5012820;28;20172;-79
2023/10/30 08:07:58;;;;;;;461.07;187.77;;;;;;;;;;5012193;28;20724;-84
2023/10/30 08:10:24;;;;;;;443.10;181.80;;;;;;;;;;5022688;28;20224;-85
2023/10/30 08:12:50;;;;;;;470.83;196.43;;;;;;;;;;5014245;28;20216;-79
2023/10/30 08:15:16;;;;;;;479.77;203.37;;;;;;;;;;5009908;28;20208;-80
2023/10/30 08:17:42;;;;;;;492.93;207.43;;;;;;;;;;5025639;28;20199;-80
2023/10/30 08:20:09;;;;;;;529.87;230.33;;;;;;;;;;5015559;28;20220;-86
2023/10/30 08:22:35;;;;;;;467.87;196.80;;;;;;;;;;5024036;28;20316;-82
2023/10/30 08:25:02;;;;;;;441.87;184.70;;;;;;;;;;5029846;28;20538;-88
2023/10/30 08:27:28;;;;;;;508.53;221.13;;;;;;;;;;5011963;28;20251;-82
2023/10/30 08:29:54;;;;;;;466.40;193.37;;;;;;;;;;5023625;28;20188;-81
2023/10/30 08:32:20;;;;;;;431.00;176.53;;;;;;;;;;5034405;28;20246;-81
2023/10/30 08:34:46;;;;;;;497.97;219.67;;;;;;;;;;5034484;28;20227;-83
2023/10/30 08:37:12;;;;;;;455.27;197.40;;;;;;;;;;5026852;28;20212;-82
2023/10/30 08:39:38;;;;;;;495.03;213.07;;;;;;;;;;5025148;28;20210;-82
2023/10/30 08:42:04;;;;;;;520.13;232.87;;;;;;;;;;5026353;28;20360;-82
2023/10/30 08:44:33;;;;;;;475.93;210.57;;;;;;;;;;5026407;28;20312;-84
2023/10/30 08:46:59;;;;;;;466.10;201.33;;;;;;;;;;5020578;28;20224;-82
2023/10/30 08:49:25;;;;;;;470.13;207.40;;;;;;;;;;5016121;28;20242;-83
2023/10/30 08:51:51;;;;;;;459.37;197.77;;;;;;;;;;5020534;28;21122;-79
2023/10/30 08:54:18;;;;;;;469.90;205.33;;;;;;;;;;5012674;28;20215;-81
2023/10/30 08:56:44;;;;;;;457.37;193.57;;;;;;;;;;5019639;28;20938;-79
2023/10/30 08:59:10;;;;;;;482.77;211.00;;;;;;;;;;5010751;28;20208;-79
2023/10/30 09:01:36;;;;;;;497.50;221.30;;;;;;;;;;5012858;28;20628;-80
2023/10/30 09:04:01;;;;;;;489.17;214.93;;;;;;;;;;5021542;28;20211;-80
2023/10/30 09:06:27;;;;;;;453.77;195.03;;;;;;;;;;5019887;28;20716;-80
2023/10/30 09:08:54;;;;;;;476.60;201.27;;;;;;;;;;5009701;28;20595;-80
2023/10/30 09:11:20;;;;;;;424.57;181.53;;;;;;;;;;5015864;28;20212;-79
2023/10/30 09:13:46;;;;;;;471.00;204.17;;;;;;;;;;5007172;28;20215;-85
2023/10/30 09:16:12;;;;;;;440.67;187.23;;;;;;;;;;5012443;28;20223;-79
2023/10/30 09:18:38;;;;;;;505.77;224.37;;;;;;;;;;5047758;28;20216;-79
2023/10/30 09:21:05;;;;;;;451.57;192.27;;;;;;;;;;5023902;28;20296;-79
2023/10/30 09:23:31;;;;;;;587.13;272.97;;;;;;;;;;5013965;28;20566;-84
2023/10/30 09:25:57;;;;;;;477.17;205.47;;;;;;;;;;5025248;28;20215;-79
2023/10/30 09:28:23;;;;;;;443.00;185.47;;;;;;;;;;5016624;28;20808;-79
2023/10/30 09:30:49;;;;;;;482.10;202.33;;;;;;;;;;5014690;28;20228;-79
2023/10/30 09:33:15;;;;;;;442.40;182.50;;;;;;;;;;5029503;28;20637;-82
2023/10/30 09:35:42;;;;;;;473.47;200.70;;;;;;;;;;5030154;28;20215;-84
2023/10/30 09:38:08;;;;;;;471.70;196.77;;;;;;;;;;5021207;28;20602;-80
2023/10/30 09:40:34;;;;;;;479.57;206.27;;;;;;;;;;5019151;28;20208;-78
2023/10/30 09:43:01;;;;;;;445.60;185.70;;;;;;;;;;5015102;28;20289;-79
2023/10/30 09:45:27;;;;;;;476.80;202.00;;;;;;;;;;5016603;28;20212;-86
2023/10/30 09:47:57;;;;;;;499.93;213.53;;;;;;;;;;5016350;28;20211;-79
2023/10/30 09:50:24;;;;;;;499.93;212.47;;;;;;;;;;5012725;28;20231;-82
2023/10/30 09:52:51;;;;;;;480.47;204.73;;;;;;;;;;5009787;28;20244;-80
2023/10/30 09:55:24;;;;;;;499.03;213.43;;;;;;;;;;5018147;28;20251;-81
2023/10/30 09:57:54;;;;;;;515.87;225.63;;;;;;;;;;5003000;28;20618;-81
2023/10/30 10:00:20;;;;;;;504.70;228.20;;;;;;;;;;5012186;28;20203;-81
2023/10/30 10:02:46;;;;;;;482.33;212.83;;;;;;;;;;5016853;28;20405;-79
2023/10/30 10:05:13;;;;;;;495.33;212.70;;;;;;;;;;5011130;28;20303;-84
2023/10/30 10:07:40;;;;;;;555.60;249.63;;;;;;;;;;5010487;28;20278;-82
2023/10/30 10:10:06;;;;;;;489.17;216.53;;;;;;;;;;5008356;28;20212;-80
2023/10/30 10:12:36;;;;;;;508.20;222.53;;;;;;;;;;5008477;28;20223;-87
2023/10/30 10:15:03;;;;;;;486.03;212.97;;;;;;;;;;5008003;28;20208;-82
2023/10/30 10:17:29;;;;;;;494.90;219.57;;;;;;;;;;5007589;28;20306;-81
2023/10/30 10:19:55;;;;;;;495.10;219.37;;;;;;;;;;5002687;28;20900;-85
2023/10/30 10:22:31;;;;;;;502.33;223.33;;;;;;;;;;5010871;28;20224;-85
2023/10/30 10:24:57;;;;;;;467.87;205.87;;;;;;;;;;5011826;28;20204;-82
2023/10/30 10:27:24;;;;;;;493.93;228.97;;;;;;;;;;5001526;28;20710;-86
2023/10/30 10:29:56;;;;;;;474.17;205.20;;;;;;;;;;5006739;28;20231;-83
2023/10/30 10:32:29;;;;;;;496.27;215.60;;;;;;;;;;5015998;28;20219;-82
2023/10/30 10:34:54;;;;;;;444.83;197.83;;;;;;;;;;5011687;28;20223;-81
2023/10/30 10:37:20;;;;;;;476.30;216.00;;;;;;;;;;5007457;28;20208;-85
2023/10/30 10:39:50;;;;;;;501.43;229.40;;;;;;;;;;5014407;28;20290;-85
2023/10/30 10:42:20;;;;;;;499.67;224.03;;;;;;;;;;5004382;28;20640;-83
2023/10/30 10:44:46;;;;;;;493.20;224.30;;;;;;;;;;5007248;28;20192;-78
2023/10/30 10:47:13;;;;;;;457.67;197.30;;;;;;;;;;5010808;28;20236;-82
2023/10/30 10:49:39;;;;;;;514.63;236.53;;;;;;;;;;5010426;28;20890;-84
2023/10/30 10:52:07;;;;;;;463.87;209.23;;;;;;;;;;5019963;28;20223;-82
2023/10/30 10:54:35;;;;;;;505.63;227.57;;;;;;;;;;5015567;28;20242;-82
2023/10/30 10:57:02;;;;;;;561.97;264.83;;;;;;;;;;5019258;28;20295;-85
2023/10/30 10:59:30;;;;;;;520.03;234.73;;;;;;;;;;5007656;28;20582;-78
2023/10/30 11:01:57;;;;;;;464.60;207.40;;;;;;;;;;5023413;28;20247;-78
2023/10/30 11:04:23;;;;;;;510.60;232.77;;;;;;;;;;5023794;28;20212;-81
2023/10/30 11:06:53;;;;;;;480.70;211.40;;;;;;;;;;5020644;28;20611;-81
2023/10/30 11:09:22;;;;;;;489.83;216.13;;;;;;;;;;5021169;28;20330;-82
2023/10/30 11:11:52;;;;;;;525.03;238.50;;;;;;;;;;5019531;28;20184;-77
2023/10/30 11:14:41;;;;;;;489.53;219.33;;;;;;;;;;5010386;28;20208;-77
2023/10/30 11:17:07;;;;;;;481.77;210.33;;;;;;;;;;5005209;28;20235;-76
2023/10/30 11:19:36;;;;;;;479.80;206.10;;;;;;;;;;5016423;28;20775;-77
2023/10/30 11:22:02;;;;;;;451.53;195.40;;;;;;;;;;5013575;28;20297;-78
2023/10/30 11:24:37;;;;;;;492.03;215.87;;;;;;;;;;5008903;28;20824;-77
2023/10/30 11:27:22;;;;;;;570.60;258.83;;;;;;;;;;5006614;28;20208;-76
2023/10/30 11:29:57;;;;;;;513.77;226.63;;;;;;;;;;5005144;28;20223;-76
2023/10/30 11:32:27;;;;;;;475.83;203.30;;;;;;;;;;5009563;28;20280;-76
2023/10/30 11:34:53;;;;;;;490.33;215.07;;;;;;;;;;5011704;28;20318;-77
2023/10/30 11:37:23;;;;;;;440.50;190.27;;;;;;;;;;5024466;28;20617;-77
2023/10/30 11:39:49;;;;;;;496.60;215.83;;;;;;;;;;5024080;28;20212;-77
2023/10/30 11:42:24;;;;;;;489.13;215.13;;;;;;;;;;5019282;28;20706;-77
2023/10/30 11:45:14;;;;;;;496.77;216.93;;;;;;;;;;5023200;28;20187;-77
2023/10/30 11:47:42;;;;;;;480.97;210.70;;;;;;;;;;5017502;28;20343;-77
2023/10/30 11:50:09;;;;;;;480.30;204.73;;;;;;;;;;5000812;28;20220;-76
2023/10/30 11:52:37;;;;;;;526.10;233.33;;;;;;;;;;5017127;28;20235;-77
2023/10/30 11:55:07;;;;;;;459.63;192.93;;;;;;;;;;5025461;28;20228;-77
2023/10/30 11:57:34;;;;;;;507.47;227.33;;;;;;;;;;5005754;28;20309;-76
2023/10/30 12:00:00;;;;;;;489.27;208.73;;;;;;;;;;5016622;28;20195;-77
2023/10/30 12:02:26;;;;;;;539.70;241.77;;;;;;;;;;5013904;28;20220;-77
2023/10/30 12:04:52;;;;;;;472.27;203.53;;;;;;;;;;5016998;28;20265;-76
2023/10/30 12:07:18;;;;;;;487.53;215.00;;;;;;;;;;5012148;28;20250;-77
2023/10/30 12:09:44;;;;;;;522.47;233.17;;;;;;;;;;5015410;28;20204;-77
2023/10/30 12:12:10;;;;;;;504.60;221.43;;;;;;;;;;5019795;28;20282;-77
2023/10/30 12:14:36;;;;;;;509.60;228.83;;;;;;;;;;5010169;28;20563;-77
2023/10/30 12:17:04;;;;;;;489.40;215.90;;;;;;;;;;5011081;28;20228;-78
2023/10/30 12:19:30;;;;;;;477.03;209.00;;;;;;;;;;5001377;28;20283;-77
2023/10/30 12:21:56;;;;;;;485.37;216.90;;;;;;;;;;5011155;28;20269;-75
2023/10/30 12:24:25;;;;;;;457.27;198.90;;;;;;;;;;5014762;28;20188;-75
2023/10/30 12:26:51;;;;;;;479.13;213.60;;;;;;;;;;5007611;28;20207;-76
2023/10/30 12:29:21;;;;;;;481.93;213.20;;;;;;;;;;5011682;28;20219;-76
2023/10/30 12:31:51;;;;;;;485.43;218.83;;;;;;;;;;5023821;28;20208;-75
2023/10/30 12:34:22;;;;;;;475.77;207.47;;;;;;;;;;5015248;28;20226;-75
2023/10/30 12:36:48;;;;;;;483.00;216.63;;;;;;;;;;5015052;28;20212;-76
2023/10/30 12:39:15;;;;;;;590.83;283.23;;;;;;;;;;5005344;28;20233;-76
2023/10/30 12:41:41;;;;;;;511.73;229.93;;;;;;;;;;5013765;28;20214;-75
2023/10/30 12:44:07;;;;;;;497.03;222.00;;;;;;;;;;5008066;28;20617;-76
2023/10/30 12:46:33;;;;;;;516.60;239.07;;;;;;;;;;5016993;28;20333;-77
2023/10/30 12:48:59;;;;;;;474.10;219.33;;;;;;;;;;5013407;28;20204;-77
2023/10/30 12:51:25;;;;;;;486.10;227.90;;;;;;;;;;5015433;28;20779;-76
2023/10/30 12:53:51;;;;;;;497.37;223.50;;;;;;;;;;5017802;28;20188;-76
2023/10/30 12:56:17;;;;;;;465.33;216.47;;;;;;;;;;5018250;28;20701;-78
2023/10/30 12:58:43;;;;;;;494.03;233.83;;;;;;;;;;5010038;28;20212;-76
2023/10/30 13:01:09;;;;;;;524.07;251.30;;;;;;;;;;5016472;28;20204;-76
2023/10/30 13:03:35;;;;;;;526.57;250.87;;;;;;;;;;5013229;28;20212;-77
2023/10/30 13:06:01;;;;;;;517.23;256.53;;;;;;;;;;5011259;28;20184;-77
2023/10/30 13:08:27;;;;;;;472.97;229.97;;;;;;;;;;5023170;28;20224;-77
2023/10/30 13:10:53;;;;;;;486.23;233.70;;;;;;;;;;5017516;28;20219;-73
2023/10/30 13:13:19;;;;;;;451.10;216.53;;;;;;;;;;5018134;28;20215;-75
2023/10/30 13:15:45;;;;;;;511.33;251.00;;;;;;;;;;5012633;28;20220;-76
2023/10/30 13:18:12;;;;;;;533.30;264.53;;;;;;;;;;5005560;28;20326;-75
2023/10/30 13:20:38;;;;;;;522.17;253.70;;;;;;;;;;5014117;28;20283;-76
2023/10/30 13:23:04;;;;;;;524.27;252.27;;;;;;;;;;5014358;28;20244;-75
2023/10/30 13:25:31;;;;;;;541.67;259.57;;;;;;;;;;5018486;28;20262;-75
2023/10/30 13:27:57;;;;;;;496.10;233.57;;;;;;;;;;5012137;28;20226;-75
2023/10/30 13:30:23;;;;;;;521.00;242.73;;;;;;;;;;5019739;28;20218;-75
2023/10/30 13:32:52;;;;;;;468.63;221.07;;;;;;;;;;5020556;28;20195;-76
2023/10/30 13:35:18;;;;;;;484.27;226.57;;;;;;;;;;5010713;28;20231;-76
2023/10/30 13:37:47;;;;;;;509.10;246.20;;;;;;;;;;5005134;28;20336;-76
2023/10/30 13:40:13;;;;;;;460.93;206.20;;;;;;;;;;5008627;28;20216;-78
2023/10/30 13:42:39;;;;;;;495.27;227.87;;;;;;;;;;5009140;28;20293;-76
2023/10/30 13:45:06;;;;;;;452.97;199.03;;;;;;;;;;5017869;28;20735;-77
2023/10/30 13:47:32;;;;;;;496.70;232.07;;;;;;;;;;5013888;28;20220;-76